Time;durP1;ratioP1;P1;durP2;ratioP2;P2;SDS_P1;SDS_P2;PMS_P1;PMS_P2;Temp;Humidity;BMP_temperature;BMP_pressure;BME280_temperature;BME280_humidity;BME280_pressure;Samples;Min_cycle;Max_cycle;Signal;HPM_P1;HPM_P2
2023/01/07 00:02:12;;;;;;;;;;;18.80;58.70;;;;;;5101183;27;43180;-81
2023/01/07 00:04:37;;;;;;;;;;;18.80;58.70;;;;;;5103679;27;43379;-81
2023/01/07 00:07:03;;;;;;;;;;;18.80;58.70;;;;;;5104569;27;42973;-80
2023/01/07 00:09:28;;;;;;;;;;;18.80;58.70;;;;;;5102978;27;43662;-80
2023/01/07 00:11:54;;;;;;;;;;;18.80;58.70;;;;;;5104206;27;42925;-76
2023/01/07 00:14:19;;;;;;;;;;;18.70;58.50;;;;;;5103568;27;42933;-80
2023/01/07 00:16:45;;;;;;;;;;;18.80;58.60;;;;;;5103810;27;43688;-80
2023/01/07 00:19:12;;;;;;;;;;;18.70;58.60;;;;;;5103700;27;43374;-80
2023/01/07 00:21:37;;;;;;;;;;;18.70;58.40;;;;;;5102944;27;43044;-80
2023/01/07 00:24:04;;;;;;;;;;;18.70;58.50;;;;;;5103882;27;44579;-80
2023/01/07 00:26:31;;;;;;;;;;;18.70;58.40;;;;;;5097452;27;42960;-80
2023/01/07 00:28:57;;;;;;;;;;;18.70;58.50;;;;;;5085040;27;45019;-79
2023/01/07 00:31:24;;;;;;;;;;;18.70;58.40;;;;;;5099629;27;42921;-79
2023/01/07 00:34:05;;;;;;;;;;;18.70;58.30;;;;;;5104520;27;43254;-77
2023/01/07 00:36:44;;;;;;;;;;;18.70;58.20;;;;;;5085360;27;42902;-76
2023/01/07 00:39:11;;;;;;;;;;;18.70;58.30;;;;;;5091803;27;43543;-78
2023/01/07 00:41:37;;;;;;;;;;;18.70;58.40;;;;;;5103788;27;42957;-78
2023/01/07 00:44:04;;;;;;;;;;;18.70;58.40;;;;;;5102028;27;43413;-78
2023/01/07 00:46:29;;;;;;;;;;;18.70;58.30;;;;;;5103737;27;42937;-77
2023/01/07 00:48:55;;;;;;;;;;;18.70;58.20;;;;;;5104645;27;43091;-79
2023/01/07 00:51:21;;;;;;;;;;;18.70;58.00;;;;;;5105625;27;42962;-78
2023/01/07 00:53:46;;;;;;;;;;;18.60;57.90;;;;;;5104697;27;43362;-78
2023/01/07 00:56:13;;;;;;;;;;;18.70;57.70;;;;;;5104784;27;42954;-78
2023/01/07 00:58:39;;;;;;;;;;;18.50;57.70;;;;;;5085115;27;44638;-79
2023/01/07 01:01:04;;;;;;;;;;;18.60;57.60;;;;;;5103862;27;43129;-78
2023/01/07 01:03:30;;;;;;;;;;;18.60;57.60;;;;;;5086135;27;43826;-78
2023/01/07 01:06:02;;;;;;;;;;;18.60;57.60;;;;;;5104911;27;42910;-77
2023/01/07 01:08:28;;;;;;;;;;;18.60;57.40;;;;;;5107821;27;43436;-78
2023/01/07 01:10:54;;;;;;;;;;;18.60;57.30;;;;;;5108400;27;42953;-78
2023/01/07 01:13:19;;;;;;;;;;;18.60;57.50;;;;;;5088134;27;44113;-79
2023/01/07 01:15:45;;;;;;;;;;;18.60;57.60;;;;;;5106882;27;43311;-78
2023/01/07 01:18:11;;;;;;;;;;;18.60;57.70;;;;;;5100515;27;43420;-79
2023/01/07 01:20:37;;;;;;;;;;;18.60;57.60;;;;;;5106941;27;43040;-78
2023/01/07 01:23:02;;;;;;;;;;;18.60;57.60;;;;;;5107534;27;42976;-78
2023/01/07 01:25:28;;;;;;;;;;;18.60;57.40;;;;;;5107871;27;42958;-78
2023/01/07 01:27:53;;;;;;;;;;;18.60;57.10;;;;;;5107317;27;43734;-78
2023/01/07 01:30:19;;;;;;;;;;;18.60;57.00;;;;;;5107343;27;43061;-78
2023/01/07 01:32:45;;;;;;;;;;;17.20;56.20;;;;;;5107266;27;43011;-78
2023/01/07 01:35:10;;;;;;;;;;;18.60;56.90;;;;;;5107010;27;42906;-77
2023/01/07 01:37:36;;;;;;;;;;;18.60;56.80;;;;;;5107485;27;43026;-76
2023/01/07 01:40:02;;;;;;;;;;;18.60;57.10;;;;;;5114542;27;43158;-77
2023/01/07 01:42:28;;;;;;;;;;;18.60;57.00;;;;;;5089685;27;44562;-78
2023/01/07 01:44:55;;;;;;;;;;;18.60;56.90;;;;;;5107446;27;43020;-77
2023/01/07 01:47:20;;;;;;;;;;;18.60;56.70;;;;;;5106551;27;43069;-78
2023/01/07 01:49:51;;;;;;;;;;;18.60;56.50;;;;;;5106138;27;43060;-78
2023/01/07 01:52:19;;;;;;;;;;;18.60;56.70;;;;;;5093234;27;44544;-79
2023/01/07 01:54:51;;;;;;;;;;;18.50;56.70;;;;;;5107010;27;42918;-78
2023/01/07 01:57:19;;;;;;;;;;;18.50;56.60;;;;;;5106329;27;43024;-78
2023/01/07 01:59:46;;;;;;;;;;;18.50;56.80;;;;;;5103243;27;42961;-79
2023/01/07 02:02:14;;;;;;;;;;;18.50;56.70;;;;;;5100547;27;43779;-78
2023/01/07 02:04:40;;;;;;;;;;;18.50;56.80;;;;;;5106395;27;43065;-79
2023/01/07 02:07:10;;;;;;;;;;;18.50;56.80;;;;;;5106277;27;43484;-78
2023/01/07 02:09:36;;;;;;;;;;;18.50;56.70;;;;;;5106808;27;43275;-78
2023/01/07 02:12:21;;;;;;;;;;;18.50;56.50;;;;;;5106047;27;42938;-78
2023/01/07 02:14:56;;;;;;;;;;;18.50;57.00;;;;;;5106747;27;43061;-78
2023/01/07 02:17:27;;;;;;;;;;;18.50;57.20;;;;;;5105903;27;44032;-78
2023/01/07 02:19:58;;;;;;;;;;;18.50;56.70;;;;;;5106183;27;43712;-78
2023/01/07 02:22:24;;;;;;;;;;;18.50;56.50;;;;;;5106370;27;42870;-77
2023/01/07 02:25:08;;;;;;;;;;;18.50;56.20;;;;;;5106322;27;42960;-78
2023/01/07 02:27:37;;;;;;;;;;;18.50;56.10;;;;;;5106026;27;43661;-78
2023/01/07 02:30:21;;;;;;;;;;;18.50;56.10;;;;;;5106094;27;43006;-77
2023/01/07 02:33:03;;;;;;;;;;;18.50;56.30;;;;;;5105638;27;43032;-79
2023/01/07 02:35:47;;;;;;;;;;;18.50;56.50;;;;;;5106180;27;42961;-78
2023/01/07 02:38:31;;;;;;;;;;;18.50;56.60;;;;;;5106317;27;43020;-78
2023/01/07 02:41:08;;;;;;;;;;;18.50;56.20;;;;;;5103424;27;43628;-77
2023/01/07 02:43:43;;;;;;;;;;;18.40;56.30;;;;;;5104364;27;43557;-77
2023/01/07 02:46:15;;;;;;;;;;;18.50;56.50;;;;;;5105551;27;42871;-77
2023/01/07 02:48:42;;;;;;;;;;;18.50;56.30;;;;;;5104254;27;43811;-78
2023/01/07 02:51:08;;;;;;;;;;;18.50;56.30;;;;;;5105640;27;43185;-78
2023/01/07 02:53:34;;;;;;;;;;;18.50;56.00;;;;;;5106351;27;43803;-78
2023/01/07 02:55:59;;;;;;;;;;;18.50;56.30;;;;;;5106107;27;42972;-78
2023/01/07 02:58:43;;;;;;;;;;;18.50;56.50;;;;;;5105265;27;42983;-78
2023/01/07 03:01:29;;;;;;;;;;;18.50;56.10;;;;;;5105179;27;42894;-78
2023/01/07 03:04:01;;;;;;;;;;;18.50;56.40;;;;;;5105695;27;43276;-77
2023/01/07 03:06:29;;;;;;;;;;;18.50;56.20;;;;;;5104690;27;42936;-77
2023/01/07 03:09:14;;;;;;;;;;;18.40;56.30;;;;;;5106013;27;43614;-78
2023/01/07 03:12:05;;;;;;;;;;;18.40;56.20;;;;;;5094397;27;42981;-78
2023/01/07 03:14:40;;;;;;;;;;;18.40;56.10;;;;;;5079077;27;44089;-78
2023/01/07 03:17:07;;;;;;;;;;;18.40;56.00;;;;;;5104837;27;42926;-77
2023/01/07 03:19:35;;;;;;;;;;;18.40;56.50;;;;;;5105719;27;43475;-78
2023/01/07 03:22:01;;;;;;;;;;;18.40;56.50;;;;;;5105925;27;42955;-77
2023/01/07 03:24:27;;;;;;;;;;;18.50;56.50;;;;;;5105673;27;43073;-77
2023/01/07 03:26:55;;;;;;;;;;;18.40;56.10;;;;;;5105592;27;43064;-78
2023/01/07 03:29:21;;;;;;;;;;;18.40;56.40;;;;;;5086181;27;45661;-78
2023/01/07 03:31:59;;;;;;;;;;;18.40;56.40;;;;;;5099187;27;43013;-78
2023/01/07 03:34:25;;;;;;;;;;;18.50;56.60;;;;;;5100667;27;43528;-78
2023/01/07 03:36:53;;;;;;;;;;;18.40;56.30;;;;;;5105722;27;42898;-78
2023/01/07 03:39:21;;;;;;;;;;;18.40;56.80;;;;;;5105173;27;44207;-77
2023/01/07 03:44:34;;;;;;;;;;;15.90;54.80;;;;;;5104865;27;43277;-76
2023/01/07 03:46:59;;;;;;;;;;;18.40;56.70;;;;;;5105695;27;42964;-78
2023/01/07 03:49:25;;;;;;;;;;;18.40;57.20;;;;;;5105053;27;44181;-77
2023/01/07 03:51:53;;;;;;;;;;;18.40;57.20;;;;;;5105611;27;43929;-78
2023/01/07 03:54:19;;;;;;;;;;;18.30;57.10;;;;;;5104770;27;43833;-78
2023/01/07 03:56:44;;;;;;;;;;;18.20;57.40;;;;;;5105794;27;42795;-78
2023/01/07 03:59:10;;;;;;;;;;;18.20;57.00;;;;;;5103898;27;43676;-78
2023/01/07 04:01:35;;;;;;;;;;;18.90;56.70;;;;;;5104619;27;43000;-76
2023/01/07 04:04:01;;;;;;;;;;;18.30;56.30;;;;;;5105156;27;43753;-77
2023/01/07 04:06:26;;;;;;;;;;;18.40;56.30;;;;;;5109453;27;42819;-78
2023/01/07 04:08:52;;;;;;;;;;;18.40;56.50;;;;;;5108674;27;43060;-78
2023/01/07 04:11:18;;;;;;;;;;;18.30;56.00;;;;;;5086893;27;43081;-78
2023/01/07 04:13:43;;;;;;;;;;;18.30;56.30;;;;;;5104976;27;42934;-78
2023/01/07 04:16:09;;;;;;;;;;;18.30;56.00;;;;;;5105360;27;42899;-79
2023/01/07 04:18:34;;;;;;;;;;;18.40;55.90;;;;;;5104342;27;43361;-78
2023/01/07 04:21:00;;;;;;;;;;;18.40;55.80;;;;;;5105210;27;42929;-78
2023/01/07 04:23:25;;;;;;;;;;;18.40;55.80;;;;;;5104461;27;43757;-78
2023/01/07 04:25:51;;;;;;;;;;;18.30;55.80;;;;;;5104845;27;42835;-78
2023/01/07 04:28:16;;;;;;;;;;;18.30;55.80;;;;;;5104431;27;42913;-77
2023/01/07 04:30:42;;;;;;;;;;;18.30;55.70;;;;;;5104608;27;42998;-78
2023/01/07 04:33:07;;;;;;;;;;;18.30;55.80;;;;;;5104193;27;43462;-78
2023/01/07 04:35:33;;;;;;;;;;;18.30;55.70;;;;;;5084419;27;43925;-78
2023/01/07 04:37:59;;;;;;;;;;;18.20;55.90;;;;;;5102141;27;42981;-77
2023/01/07 04:40:25;;;;;;;;;;;18.30;55.90;;;;;;5097970;27;43008;-78
2023/01/07 04:42:50;;;;;;;;;;;18.30;56.00;;;;;;5107372;27;43447;-78
2023/01/07 04:45:16;;;;;;;;;;;18.30;56.00;;;;;;5107627;27;43173;-77
2023/01/07 04:47:41;;;;;;;;;;;18.30;56.10;;;;;;5107614;27;43153;-76
2023/01/07 04:50:07;;;;;;;;;;;18.30;56.70;;;;;;5108586;27;42975;-78
2023/01/07 04:52:33;;;;;;;;;;;18.30;57.10;;;;;;5108580;27;44070;-77
2023/01/07 04:54:58;;;;;;;;;;;18.30;56.50;;;;;;5115818;27;42928;-78
2023/01/07 04:57:24;;;;;;;;;;;18.30;56.30;;;;;;5107966;27;42948;-78
2023/01/07 04:59:49;;;;;;;;;;;18.30;56.70;;;;;;5108585;27;42984;-78
2023/01/07 05:02:15;;;;;;;;;;;18.30;57.50;;;;;;5107181;27;43549;-76
2023/01/07 05:04:40;;;;;;;;;;;18.30;57.00;;;;;;5107875;27;42973;-78
2023/01/07 05:07:06;;;;;;;;;;;18.40;57.30;;;;;;5106853;27;43025;-78
2023/01/07 05:09:32;;;;;;;;;;;18.40;56.50;;;;;;5107614;27;43076;-78
2023/01/07 05:11:58;;;;;;;;;;;18.40;56.40;;;;;;5107182;27;43208;-78
2023/01/07 05:14:23;;;;;;;;;;;18.30;56.30;;;;;;5115698;27;42924;-79
2023/01/07 05:16:48;;;;;;;;;;;18.30;56.30;;;;;;5110997;27;43878;-77
2023/01/07 05:19:14;;;;;;;;;;;18.30;56.40;;;;;;5107763;27;43055;-76
2023/01/07 05:21:39;;;;;;;;;;;18.30;56.60;;;;;;5107359;27;44243;-78
2023/01/07 05:24:05;;;;;;;;;;;18.30;56.50;;;;;;5089135;27;42810;-76
2023/01/07 05:26:31;;;;;;;;;;;18.30;56.40;;;;;;5107804;27;42957;-77
2023/01/07 05:28:56;;;;;;;;;;;18.30;56.40;;;;;;5107426;27;43065;-79
2023/01/07 05:31:22;;;;;;;;;;;18.30;56.10;;;;;;5107379;27;43609;-78
2023/01/07 05:33:47;;;;;;;;;;;18.30;56.10;;;;;;5107497;27;42938;-78
2023/01/07 05:36:13;;;;;;;;;;;18.30;56.00;;;;;;5106641;27;43453;-76
2023/01/07 05:38:38;;;;;;;;;;;18.30;56.10;;;;;;5106839;27;43612;-75
2023/01/07 05:41:04;;;;;;;;;;;18.30;56.30;;;;;;5105022;27;43698;-77
2023/01/07 05:43:30;;;;;;;;;;;18.30;56.10;;;;;;5096944;27;43058;-76
2023/01/07 05:45:56;;;;;;;;;;;18.30;56.00;;;;;;5499840;22;43069;-75
2023/01/07 05:48:21;;;;;;;;;;;18.30;56.20;;;;;;5128353;27;42770;-75
2023/01/07 05:50:47;;;;;;;;;;;18.30;56.50;;;;;;5126576;27;43683;-75
2023/01/07 05:53:12;;;;;;;;;;;18.30;56.20;;;;;;5132266;27;43160;-76
2023/01/07 05:55:38;;;;;;;;;;;18.30;55.90;;;;;;5129490;27;43614;-75
2023/01/07 05:58:04;;;;;;;;;;;18.30;56.00;;;;;;5127836;27;43099;-75
2023/01/07 06:00:30;;;;;;;;;;;18.30;55.90;;;;;;5111772;27;42938;-75
2023/01/07 06:02:55;;;;;;;;;;;18.20;55.90;;;;;;5115527;27;43027;-75
2023/01/07 06:05:21;;;;;;;;;;;18.20;56.10;;;;;;5110636;27;43845;-75
2023/01/07 06:07:46;;;;;;;;;;;18.20;56.00;;;;;;5127581;27;42981;-75
2023/01/07 06:10:12;;;;;;;;;;;18.20;56.00;;;;;;5112291;27;43189;-75
2023/01/07 06:12:38;;;;;;;;;;;18.10;56.20;;;;;;5118062;27;42945;-75
2023/01/07 06:15:05;;;;;;;;;;;18.20;56.40;;;;;;5125483;27;42900;-78
2023/01/07 06:17:31;;;;;;;;;;;18.20;56.50;;;;;;5116601;27;43025;-77
2023/01/07 06:19:57;;;;;;;;;;;18.20;56.50;;;;;;5126326;27;42881;-75
2023/01/07 06:22:22;;;;;;;;;;;18.20;56.10;;;;;;5127470;27;42838;-75
2023/01/07 06:24:48;;;;;;;;;;;18.20;56.70;;;;;;5126376;27;43003;-76
2023/01/07 06:27:13;;;;;;;;;;;18.30;56.30;;;;;;5109026;27;43051;-77
2023/01/07 06:29:39;;;;;;;;;;;18.30;56.50;;;;;;5126562;27;42997;-76
2023/01/07 06:32:05;;;;;;;;;;;22.00;59.10;;;;;;5110668;27;42962;-78
2023/01/07 06:34:30;;;;;;;;;;;16.00;55.10;;;;;;5132003;27;43046;-77
2023/01/07 06:36:56;;;;;;;;;;;18.20;56.00;;;;;;5116321;27;43159;-75
2023/01/07 06:39:21;;;;;;;;;;;18.20;56.90;;;;;;5122270;27;43859;-75
2023/01/07 06:41:47;;;;;;;;;;;18.30;56.10;;;;;;5123887;27;43139;-77
2023/01/07 06:44:12;;;;;;;;;;;18.20;55.90;;;;;;5123852;27;43547;-77
2023/01/07 06:46:38;;;;;;;;;;;18.20;55.70;;;;;;5115521;27;43278;-76
2023/01/07 06:49:04;;;;;;;;;;;18.20;55.70;;;;;;5119084;27;42888;-77
2023/01/07 06:51:29;;;;;;;;;;;18.20;56.40;;;;;;5126862;27;43048;-76
2023/01/07 06:53:55;;;;;;;;;;;18.20;55.60;;;;;;5119876;27;43486;-78
2023/01/07 06:56:20;;;;;;;;;;;18.20;55.50;;;;;;5115044;27;42984;-76
2023/01/07 06:58:46;;;;;;;;;;;18.20;55.70;;;;;;5123501;27;43075;-76
2023/01/07 07:01:11;;;;;;;;;;;18.20;56.00;;;;;;5125334;27;42983;-76
2023/01/07 07:03:37;;;;;;;;;;;18.20;55.90;;;;;;5124772;27;43447;-76
2023/01/07 07:06:03;;;;;;;;;;;18.20;56.30;;;;;;5123735;27;43080;-75
2023/01/07 07:08:29;;;;;;;;;;;18.10;56.90;;;;;;5123416;27;43475;-76
2023/01/07 07:10:54;;;;;;;;;;;18.10;57.80;;;;;;5104014;27;43071;-76
2023/01/07 07:13:20;;;;;;;;;;;18.20;56.00;;;;;;5126398;27;43703;-75
2023/01/07 07:15:46;;;;;;;;;;;18.10;56.70;;;;;;5098868;27;42964;-78
2023/01/07 07:18:11;;;;;;;;;;;18.20;56.00;;;;;;5115038;27;44338;-75
2023/01/07 07:20:37;;;;;;;;;;;18.20;55.80;;;;;;5116600;27;43024;-77
2023/01/07 07:23:02;;;;;;;;;;;18.20;55.70;;;;;;5114828;27;43267;-76
2023/01/07 07:25:28;;;;;;;;;;;18.20;55.60;;;;;;5123128;27;43001;-77
2023/01/07 07:27:54;;;;;;;;;;;18.20;56.40;;;;;;5122666;27;44800;-76
2023/01/07 07:30:19;;;;;;;;;;;18.20;56.80;;;;;;5125893;27;42789;-78
2023/01/07 07:32:45;;;;;;;;;;;18.20;56.00;;;;;;5097314;27;42926;-77
2023/01/07 07:35:11;;;;;;;;;;;18.10;56.00;;;;;;5124145;27;42956;-76
2023/01/07 07:37:37;;;;;;;;;;;18.10;55.80;;;;;;5111177;27;43332;-76
2023/01/07 07:40:03;;;;;;;;;;;18.10;55.90;;;;;;5116779;27;43016;-75
2023/01/07 07:42:28;;;;;;;;;;;18.20;55.80;;;;;;5121995;27;43627;-77
2023/01/07 07:44:54;;;;;;;;;;;18.10;55.70;;;;;;5124010;27;43069;-75
2023/01/07 07:47:19;;;;;;;;;;;18.20;55.60;;;;;;5124973;27;43098;-77
2023/01/07 07:49:45;;;;;;;;;;;18.20;55.60;;;;;;5121732;27;42921;-77
2023/01/07 07:52:11;;;;;;;;;;;18.20;55.50;;;;;;5125397;27;42916;-78
2023/01/07 07:54:36;;;;;;;;;;;18.10;55.60;;;;;;5106757;27;42985;-76
2023/01/07 07:57:02;;;;;;;;;;;18.10;55.40;;;;;;5118900;27;43626;-79
2023/01/07 07:59:28;;;;;;;;;;;18.10;55.60;;;;;;5120250;27;42998;-76
2023/01/07 08:01:54;;;;;;;;;;;18.10;56.10;;;;;;5110279;27;43029;-77
2023/01/07 08:04:19;;;;;;;;;;;18.10;56.60;;;;;;5107271;27;43062;-78
2023/01/07 08:06:45;;;;;;;;;;;18.10;56.00;;;;;;5108835;27;42892;-78
2023/01/07 08:09:10;;;;;;;;;;;18.20;56.00;;;;;;5112141;27;42921;-78
2023/01/07 08:11:36;;;;;;;;;;;18.20;55.80;;;;;;5115340;27;42933;-74
2023/01/07 08:14:01;;;;;;;;;;;18.10;56.20;;;;;;5124016;27;42918;-75
2023/01/07 08:16:27;;;;;;;;;;;18.10;57.80;;;;;;5119604;27;43345;-76
2023/01/07 08:18:52;;;;;;;;;;;18.00;57.90;;;;;;5124736;27;43122;-77
2023/01/07 08:21:18;;;;;;;;;;;18.00;57.90;;;;;;5113140;27;44855;-75
2023/01/07 08:23:43;;;;;;;;;;;18.00;55.20;;;;;;5123797;27;42950;-77
2023/01/07 08:26:09;;;;;;;;;;;18.00;55.80;;;;;;5125251;27;43957;-75
2023/01/07 08:28:35;;;;;;;;;;;18.00;52.80;;;;;;5120489;27;43106;-78
2023/01/07 08:31:02;;;;;;;;;;;17.90;51.20;;;;;;5098242;27;44419;-78
2023/01/07 08:33:28;;;;;;;;;;;17.90;51.80;;;;;;5112941;27;43090;-77
2023/01/07 08:35:53;;;;;;;;;;;17.90;53.50;;;;;;5116773;27;43075;-79
2023/01/07 08:38:19;;;;;;;;;;;18.00;53.40;;;;;;5115661;27;42920;-78
2023/01/07 08:40:44;;;;;;;;;;;18.10;53.20;;;;;;5123772;27;43552;-79
2023/01/07 08:43:11;;;;;;;;;;;18.10;53.10;;;;;;5117401;27;42870;-77
2023/01/07 08:45:37;;;;;;;;;;;18.00;53.10;;;;;;5096760;27;44126;-75
2023/01/07 08:48:02;;;;;;;;;;;18.00;53.10;;;;;;5117779;27;43010;-78
2023/01/07 08:50:29;;;;;;;;;;;18.00;53.50;;;;;;5108708;27;42990;-77
2023/01/07 08:52:54;;;;;;;;;;;18.10;53.40;;;;;;5108070;27;43062;-79
2023/01/07 08:55:20;;;;;;;;;;;18.00;53.40;;;;;;5111360;27;43009;-78
2023/01/07 08:57:48;;;;;;;;;;;17.70;53.50;;;;;;5112029;27;43213;-77
2023/01/07 09:00:15;;;;;;;;;;;18.00;53.60;;;;;;5114733;27;43015;-78
2023/01/07 09:02:40;;;;;;;;;;;18.00;53.60;;;;;;5115611;27;43083;-78
2023/01/07 09:05:06;;;;;;;;;;;18.10;53.60;;;;;;5120665;27;43045;-76
2023/01/07 09:07:31;;;;;;;;;;;18.10;53.50;;;;;;5119991;27;43026;-77
2023/01/07 09:09:57;;;;;;;;;;;18.10;53.30;;;;;;5108718;27;43848;-74
2023/01/07 09:12:22;;;;;;;;;;;18.10;53.40;;;;;;5105513;27;43051;-74
2023/01/07 09:14:48;;;;;;;;;;;18.10;53.60;;;;;;5100141;27;43036;-74
2023/01/07 09:17:13;;;;;;;;;;;18.10;53.90;;;;;;5103184;27;42986;-73
2023/01/07 09:19:39;;;;;;;;;;;18.00;53.90;;;;;;5103031;27;43782;-75
2023/01/07 09:22:04;;;;;;;;;;;18.10;53.90;;;;;;5106075;27;42974;-75
2023/01/07 09:24:30;;;;;;;;;;;18.10;54.00;;;;;;5105104;27;43053;-77
2023/01/07 09:26:55;;;;;;;;;;;18.10;54.00;;;;;;5114928;27;43071;-75
2023/01/07 09:29:21;;;;;;;;;;;18.00;54.60;;;;;;5090376;27;44475;-75
2023/01/07 09:31:46;;;;;;;;;;;17.90;54.70;;;;;;5105536;27;43099;-77
2023/01/07 09:34:12;;;;;;;;;;;18.00;53.90;;;;;;5109588;27;43099;-77
2023/01/07 09:36:37;;;;;;;;;;;18.00;54.00;;;;;;5112520;27;43232;-78
2023/01/07 09:39:03;;;;;;;;;;;17.90;51.90;;;;;;5123612;27;43685;-77
2023/01/07 09:41:38;;;;;;;;;;;17.80;49.60;;;;;;5110113;27;42961;-76
2023/01/07 09:44:13;;;;;;;;;;;17.70;48.90;;;;;;5107478;27;43848;-75
2023/01/07 09:46:39;;;;;;;;;;;17.70;47.50;;;;;;5105203;27;42826;-77
2023/01/07 09:49:05;;;;;;;;;;;17.60;47.50;;;;;;5109043;27;43633;-78
2023/01/07 09:51:33;;;;;;;;;;;17.60;47.20;;;;;;5106731;27;43201;-78
2023/01/07 09:54:00;;;;;;;;;;;17.60;51.60;;;;;;5118314;27;43678;-79
2023/01/07 09:56:27;;;;;;;;;;;17.60;53.80;;;;;;5122743;27;43071;-75
2023/01/07 09:58:53;;;;;;;;;;;17.60;54.90;;;;;;5112401;27;43027;-74
2023/01/07 10:01:24;;;;;;;;;;;17.70;55.00;;;;;;5127019;27;43116;-74
2023/01/07 10:03:50;;;;;;;;;;;17.70;55.30;;;;;;5125121;27;42896;-78
2023/01/07 10:06:19;;;;;;;;;;;17.80;55.40;;;;;;5114647;27;43297;-77
2023/01/07 10:09:04;;;;;;;;;;;17.80;55.60;;;;;;5120502;27;43169;-78
2023/01/07 10:11:29;;;;;;;;;;;17.90;55.80;;;;;;5126834;27;43954;-76
2023/01/07 10:13:55;;;;;;;;;;;17.80;56.00;;;;;;5438642;22;42909;-74
2023/01/07 10:16:20;;;;;;;;;;;17.90;56.40;;;;;;5086447;27;43126;-75
2023/01/07 10:19:09;;;;;;;;;;;17.90;56.40;;;;;;5105867;27;43628;-74
2023/01/07 10:21:50;;;;;;;;;;;17.90;56.50;;;;;;5105723;27;42933;-75
2023/01/07 10:24:19;;;;;;;;;;;17.90;56.80;;;;;;5105087;27;43446;-75
2023/01/07 10:26:47;;;;;;;;;;;17.90;56.90;;;;;;5105825;27;43016;-78
2023/01/07 10:29:31;;;;;;;;;;;17.90;57.10;;;;;;5105542;27;43004;-75
2023/01/07 10:31:58;;;;;;;;;;;17.90;57.20;;;;;;5081747;27;43000;-78
2023/01/07 10:34:28;;;;;;;;;;;17.90;57.40;;;;;;5104485;27;43177;-76
2023/01/07 10:37:01;;;;;;;;;;;18.00;57.60;;;;;;5105369;27;42965;-76
2023/01/07 10:39:32;;;;;;;;;;;18.00;57.70;;;;;;5103958;27;43104;-76
2023/01/07 10:42:13;;;;;;;;;;;18.00;57.80;;;;;;5105184;27;43104;-79
2023/01/07 10:44:56;;;;;;;;;;;18.00;57.80;;;;;;5103590;27;43524;-78
2023/01/07 10:47:37;;;;;;;;;;;18.00;57.90;;;;;;5102026;27;42783;-77
2023/01/07 10:50:17;;;;;;;;;;;18.00;58.10;;;;;;5102183;27;42952;-84
2023/01/07 10:58:48;;;;;;;;;;;17.70;58.70;;;;;;5101733;27;42903;-76
2023/01/07 11:01:36;;;;;;;;;;;18.10;59.00;;;;;;5104464;27;43646;-80
2023/01/07 11:04:02;;;;;;;;;;;18.00;59.10;;;;;;5096590;27;42975;-80
2023/01/07 11:06:34;;;;;;;;;;;18.10;59.20;;;;;;5103824;27;43789;-80
2023/01/07 11:09:01;;;;;;;;;;;18.00;59.20;;;;;;5103634;27;43122;-79
2023/01/07 11:11:27;;;;;;;;;;;18.10;59.30;;;;;;5104849;27;42926;-81
2023/01/07 11:14:00;;;;;;;;;;;18.10;59.40;;;;;;5104670;27;43169;-82
2023/01/07 11:16:28;;;;;;;;;;;18.10;59.30;;;;;;5103695;27;43047;-80
2023/01/07 11:19:03;;;;;;;;;;;18.10;59.50;;;;;;5097019;27;43427;-79
2023/01/07 11:21:31;;;;;;;;;;;17.80;59.30;;;;;;5099658;27;43376;-81
2023/01/07 11:23:57;;;;;;;;;;;18.10;59.70;;;;;;5097269;27;43201;-79
2023/01/07 11:26:27;;;;;;;;;;;18.10;60.30;;;;;;5094770;27;43113;-81
2023/01/07 11:28:53;;;;;;;;;;;18.10;60.50;;;;;;5103256;27;42980;-80
2023/01/07 11:31:19;;;;;;;;;;;18.10;60.60;;;;;;5100218;27;42859;-82
2023/01/07 11:33:45;;;;;;;;;;;18.10;60.70;;;;;;5099754;27;42954;-81
2023/01/07 11:36:11;;;;;;;;;;;18.20;60.70;;;;;;5090495;27;43037;-82
2023/01/07 12:08:02;;;;;;;;;;;18.40;60.20;;;;;;5748727;22;43244;-82
2023/01/07 12:10:35;;;;;;;;;;;18.40;60.10;;;;;;5044295;28;43034;-81
2023/01/07 12:13:02;;;;;;;;;;;18.40;60.10;;;;;;5044588;28;42985;-81
2023/01/07 12:15:29;;;;;;;;;;;18.40;60.10;;;;;;5043294;28;42966;-81
2023/01/07 12:18:01;;;;;;;;;;;18.40;60.10;;;;;;5041231;28;43696;-76
2023/01/07 12:20:34;;;;;;;;;;;18.40;60.10;;;;;;5048378;28;59927;-75
2023/01/07 12:23:18;;;;;;;;;;;18.40;60.20;;;;;;5042444;28;42952;-77
2023/01/07 12:25:44;;;;;;;;;;;18.40;60.20;;;;;;5042777;28;42974;-77
2023/01/07 12:28:11;;;;;;;;;;;18.40;59.50;;;;;;5037969;28;43639;-77
2023/01/07 12:30:40;;;;;;;;;;;18.30;58.20;;;;;;5033597;28;42999;-75
2023/01/07 12:33:24;;;;;;;;;;;18.30;57.00;;;;;;5035728;28;43033;-77
2023/01/07 12:35:50;;;;;;;;;;;18.20;49.10;;;;;;5042714;28;43006;-75
2023/01/07 12:38:15;;;;;;;;;;;17.90;48.40;;;;;;5043225;28;43006;-77
2023/01/07 12:40:50;;;;;;;;;;;17.70;47.50;;;;;;5053628;28;42956;-76
2023/01/07 12:43:19;;;;;;;;;;;17.50;47.10;;;;;;5042924;28;43086;-78
2023/01/07 12:46:01;;;;;;;;;;;17.30;47.10;;;;;;5048980;28;42891;-76
2023/01/07 12:51:20;;;;;;;;;;;17.20;49.00;;;;;;5043973;28;43176;-79
2023/01/07 12:53:49;;;;;;;;;;;17.30;51.10;;;;;;5047161;28;44417;-75
2023/01/07 12:56:17;;;;;;;;;;;17.40;52.50;;;;;;5044172;28;42945;-79
2023/01/07 12:58:47;;;;;;;;;;;17.60;54.10;;;;;;5040322;28;43990;-78
2023/01/07 13:01:17;;;;;;;;;;;17.80;54.60;;;;;;5049617;28;43188;-79
2023/01/07 13:03:49;;;;;;;;;;;17.90;54.50;;;;;;5051389;28;42875;-79
2023/01/07 13:06:20;;;;;;;;;;;17.90;54.50;;;;;;5044963;28;42816;-79
2023/01/07 13:08:53;;;;;;;;;;;18.00;54.60;;;;;;5031352;28;43362;-78
2023/01/07 13:12:41;;;;;;;;;;;18.10;54.80;;;;;;5036925;28;43460;-78
2023/01/07 13:14:04;;;;;;;;;;;18.10;54.80;;;;;;5027574;28;43362;-77
2023/01/07 13:16:30;;;;;;;;;;;18.00;52.90;;;;;;5026396;28;43868;-74
2023/01/07 13:18:55;;;;;;;;;;;18.20;54.20;;;;;;5045619;28;43012;-77
2023/01/07 13:21:21;;;;;;;;;;;18.20;54.50;;;;;;5045942;28;43145;-76
2023/01/07 13:23:53;;;;;;;;;;;18.30;55.00;;;;;;5045388;28;43576;-76
2023/01/07 13:26:41;;;;;;;;;;;18.20;55.30;;;;;;5052880;28;42915;-77
2023/01/07 13:29:15;;;;;;;;;;;18.20;55.90;;;;;;5043719;28;43118;-75
2023/01/07 13:31:55;;;;;;;;;;;18.20;56.70;;;;;;5033407;28;43045;-78
2023/01/07 13:34:24;;;;;;;;;;;18.20;56.40;;;;;;5034512;28;43022;-78
2023/01/07 13:37:10;;;;;;;;;;;18.30;56.80;;;;;;5042002;28;42990;-78
2023/01/07 13:39:45;;;;;;;;;;;18.30;57.10;;;;;;5044672;28;43089;-79
2023/01/07 13:42:21;;;;;;;;;;;18.30;57.30;;;;;;5055262;28;42999;-75
2023/01/07 13:45:01;;;;;;;;;;;18.30;57.40;;;;;;5043201;28;43013;-74
2023/01/07 13:47:37;;;;;;;;;;;18.30;57.60;;;;;;5042840;28;43122;-77
2023/01/07 13:50:02;;;;;;;;;;;18.40;57.80;;;;;;5042051;28;43069;-76
2023/01/07 13:52:32;;;;;;;;;;;18.40;57.90;;;;;;5048806;28;43428;-76
2023/01/07 13:54:59;;;;;;;;;;;18.30;58.00;;;;;;5050162;28;43597;-76
2023/01/07 13:57:25;;;;;;;;;;;18.40;58.10;;;;;;5047939;28;43428;-74
2023/01/07 13:59:54;;;;;;;;;;;18.40;58.30;;;;;;5045300;28;43049;-75
2023/01/07 14:02:20;;;;;;;;;;;18.40;58.40;;;;;;5046777;28;43049;-78
2023/01/07 14:04:49;;;;;;;;;;;18.40;58.40;;;;;;5040114;28;43116;-77
2023/01/07 14:07:16;;;;;;;;;;;18.40;58.60;;;;;;5040380;28;43049;-77
2023/01/07 14:09:41;;;;;;;;;;;18.50;58.70;;;;;;5038507;28;43657;-76
2023/01/07 14:12:07;;;;;;;;;;;18.50;58.80;;;;;;5048453;28;43088;-78
2023/01/07 14:15:11;;;;;;;;;;;18.50;59.00;;;;;;5043714;28;43636;-75
2023/01/07 14:17:45;;;;;;;;;;;18.50;59.20;;;;;;4995298;28;43328;-77
2023/01/07 14:20:31;;;;;;;;;;;18.50;59.40;;;;;;4987769;28;42965;-77
2023/01/07 14:22:56;;;;;;;;;;;18.50;59.50;;;;;;5000378;28;43019;-76
2023/01/07 14:25:25;;;;;;;;;;;18.50;59.60;;;;;;5001286;28;43661;-76
2023/01/07 14:28:02;;;;;;;;;;;18.50;59.70;;;;;;5004766;28;43172;-76
2023/01/07 14:30:46;;;;;;;;;;;18.50;56.80;;;;;;4980704;28;43230;-74
2023/01/07 14:33:20;;;;;;;;;;;18.40;58.80;;;;;;4999479;28;43132;-77
2023/01/07 14:35:53;;;;;;;;;;;18.50;59.20;;;;;;4996234;28;43660;-74
2023/01/07 14:38:28;;;;;;;;;;;18.40;59.30;;;;;;4991520;28;42963;-74
2023/01/07 14:41:05;;;;;;;;;;;18.40;59.40;;;;;;4986356;28;43123;-76
2023/01/07 14:43:40;;;;;;;;;;;18.50;59.60;;;;;;4996088;28;43154;-77
2023/01/07 14:46:06;;;;;;;;;;;18.50;59.60;;;;;;4985703;28;43745;-77
2023/01/07 14:48:32;;;;;;;;;;;18.50;59.80;;;;;;5011966;28;43200;-75
2023/01/07 14:51:04;;;;;;;;;;;18.50;59.80;;;;;;5041623;28;43457;-78
2023/01/07 14:53:32;;;;;;;;;;;18.50;59.90;;;;;;5045286;28;42926;-76
2023/01/07 14:56:27;;;;;;;;;;;18.50;59.90;;;;;;5043842;28;43827;-78
2023/01/07 14:58:58;;;;;;;;;;;18.50;60.10;;;;;;5034382;28;43170;-78
2023/01/07 15:01:43;;;;;;;;;;;18.50;60.10;;;;;;5040920;28;43933;-77
2023/01/07 15:04:15;;;;;;;;;;;18.50;60.30;;;;;;5028099;28;43078;-77
2023/01/07 15:06:42;;;;;;;;;;;18.50;60.50;;;;;;5046861;28;43902;-77